Alta Vista, CA

5:09 PM PDT on September 21, 2014 (GMT -0700)
RidgeView | Change Station
CLOSE
Current Station
Personal Weather Station
Location: San Diego, CA
Elevation: 272 ft
Nearby Weather Stations

Elev 272 ft 32.73 °N, 117.09 °W | Updated 4 seconds ago

Clear
Clear
78.8 °F
Feels Like 81 °F
N
7.0
Wind Variable Wind from WNW
Gusts 14.0 mph

Today
High -- | Low -- °F
--% Chance of Precip.
Yesterday
High -- | Low -- °F
Precip. -- in
6:35 AM 6:46 PM
Waning Crescent, 5% visible
Pressure 29.94 in
Visibility 10.0 miles
Clouds Few 2500 ft
Heat Index 81 °F
Dew Point 68 °F
Humidity 69%
Rainfall 0.00 in
Snow Depth 0 in , 0 in , 0 in
UV 2 out of 12
Pollen 5.60 out of 12
Ozone Good
PM2.5 Good
Flu Activity Not available.
METAR KSAN 212351Z 30011KT 10SM FEW025 24/16 A2993 RMK AO2 SLP136 T02390161 10256 20239 56008

More Conditions Fewer Conditions

Pressure 29.94 in
Visibility 10.0 miles
Clouds Few 2500 ft
Heat Index 81 °F
Dew Point 68 °F
Humidity 69%
Rainfall 0.00 in
Snow Depth 0 in , 0 in , 0 in
UV 2 out of 12
Pollen 5.60 out of 12
Ozone Good
PM2.5 Good
Flu Activity Not available.
METAR KSAN 212351Z 30011KT 10SM FEW025 24/16 A2993 RMK AO2 SLP136 T02390161 10256 20239 56008

More Conditions Fewer Conditions

10-Day Weather Forecast

Almanac

Astronomy

Sep. 21, 2014 Rise Set
Actual Time 6:35 AM PDT 6:46 PM PDT
Civil Twilight 6:11 AM PDT 7:10 PM PDT
Nautical Twilight 5:42 AM PDT 7:39 PM PDT
Astronomical Twilight 5:13 AM PDT 8:08 PM PDT
Moon 4:19 AM PDT (9/21) 5:20 PM PDT (9/21)
Length of Visible Light 12h 59m
Length of Day
12h 10m
Tomorrow will be 2m 0s shorter.
Waning Crescent, 5% of the Moon is Illuminated
Today
Waning Crescent
Sep 24
New
Oct 1
First Quarter
Oct 8
Full
Oct 15
Last Quarter

Today's Extremes

State Highs State Lows

Community

WunderPhotos

Upload Photos

1,755,309 photos uploaded!

WunderBlogs® & News

Nearby

Air Quality

  Air Quality AQ Index Pollutant
Yesterday Good
OZONE
Yesterday Good
PM2.5
Current Good
OZONE
Current Good
PM2.5
Sunday Good
PM2.5
Sunday Good
OZONE
Monday Moderate
PM2.5
Monday Good
OZONE

Snow Depth

Station Depth Elevation
Leavitt Lake 0 in 9400 ft
Adin Mountain 0 in 6200 ft
Burnside Lake 0 in 8139 ft
Rubicon #2 0 in 7500 ft
Monitor Pass 0 in 8350 ft

Earthquake Activity

City Distance Mag. Time & Date
Borrego Springs, California 47 miles 2.6 7:34 AM PDT
2014-09-21
Aguanga, California 54 miles 2.5 1:38 AM PDT
2014-09-19
Minimum magnitude displayed is 2.5.

Coastal Water Temperatures

Place Temperature
La Jolla, CA 73.9 °F
San Diego, CA 75.9 °F

Nearby Weather Stations